• Join FlightAware (Why Join?)
  • Login
  • US Flag 
Gobble Gobble! 
06:10PM EST


 

Airport Tracker/Info


-or-


 

Live Flight TrackerFlight Track Log ✈ CTL16 ✈ 03-May-2013 ✈ KHAO - KBKL

Flight Track Log - Related Links

Times and Time Zones

All times are in EDT time to prevent confusion due to time zone crossing. See the CTL16 flight status page for this flight to view local times or setup timezone preferences in your user account.

Time Position Orientation Groundspeed Altitude Reporting Facility
EDT Latitude Longitude Course Direction KTS MPH feet Rate Location/Type
08:30PM 39.3833 -84.4667 360° North 121 139 2,300  Level Cincinnati TRACON
08:31PM 39.4000 -84.4667 360° North 120 138 2,600 900 Climbing Cincinnati TRACON
08:32PM 39.4139 -84.4314 63° Northeast 122 140 3,500 720 Climbing Indianapolis Center
08:33PM 39.4400 -84.3933 48° Northeast 126 145 4,100 600 Climbing Indianapolis Center
08:34PM 39.4678 -84.3539 48° Northeast 138 159 4,800 720 Climbing Indianapolis Center
08:35PM 39.4947 -84.3153 48° Northeast 141 162 5,600 780 Climbing Indianapolis Center
08:36PM 39.5203 -84.2836 44° Northeast 128 147 6,400 660 Climbing Indianapolis Center
08:37PM 39.5458 -84.2517 44° Northeast 124 143 7,000 240 Climbing Indianapolis Center
08:38PM 39.5769 -84.2044 49° Northeast 170 196 7,000  Level Indianapolis Center
08:39PM 39.6069 -84.1650 45° Northeast 159 183 7,100  Climbing Indianapolis Center
08:40PM 39.6467 -84.1161 43° Northeast 174 200 7,000 -60 Descending Indianapolis Center
08:41PM 39.6797 -84.0689 48° Northeast 171 197 7,000  Level Indianapolis Center
08:42PM 39.7119 -84.0297 43° Northeast 173 199 7,000  Level Indianapolis Center
08:43PM 39.7447 -83.9864 45° Northeast 173 199 7,000  Level Indianapolis Center
08:44PM 39.7817 -83.9300 50° Northeast 173 199 7,000  Level Indianapolis Center
08:45PM 39.8131 -83.8878 46° Northeast 174 200 7,000  Level Indianapolis Center
08:46PM 39.8458 -83.8431 46° Northeast 173 199 7,000  Level Indianapolis Center
08:47PM 39.8800 -83.8039 41° Northeast 179 206 7,000  Level Indianapolis Center
08:48PM 39.9267 -83.7547 39° Northeast 179 206 7,000  Level Indianapolis Center
08:49PM 39.9722 -83.7203 30° Northeast 184 212 7,000  Level Indianapolis Center
08:50PM 40.0044 -83.6808 43° Northeast 180 207 7,000  Level Indianapolis Center
08:51PM 40.0433 -83.6394 39° Northeast 179 206 7,000 -60 Level Indianapolis Center
08:52PM 40.0775 -83.6000 41° Northeast 179 206 6,900  Descending Indianapolis Center
08:52PM 40.0850 -83.5908 43° Northeast 178 205 7,000  Climbing Indianapolis Center
08:53PM 40.1164 -83.5558 40° Northeast 179 206 6,900  Descending Indianapolis Center
08:53PM 40.1236 -83.5481 39° Northeast 178 205 7,000 60 Climbing Indianapolis Center
08:54PM 40.1508 -83.5136 44° Northeast 176 203 7,000  Level Indianapolis Center
08:54PM 40.1597 -83.5042 39° Northeast 177 204 7,000  Level Indianapolis Center
08:55PM 40.1872 -83.4717 42° Northeast 174 200 7,000  Level Indianapolis Center
08:55PM 40.1972 -83.4617 37° Northeast 176 203 7,000  Level Indianapolis Center
08:56PM 40.2217 -83.4322 43° Northeast 173 199 7,000  Level Indianapolis Center
08:56PM 40.2325 -83.4189 43° Northeast 174 200 7,000  Level Indianapolis Center
08:57PM 40.2686 -83.3758 42° Northeast 173 199 7,000  Level Indianapolis Center
08:58PM 40.3033 -83.3347 42° Northeast 168 193 7,000  Level Indianapolis Center
08:59PM 40.3400 -83.2933 41° Northeast 170 196 7,000 -60 Level Indianapolis Center
09:00PM 40.3750 -83.2522 42° Northeast 168 193 6,900 -60 Descending Indianapolis Center
09:01PM 40.4092 -83.2108 43° Northeast 166 191 6,900  Level Indianapolis Center
09:02PM 40.4447 -83.1686 42° Northeast 168 193 7,000  Climbing Indianapolis Center
09:03PM 40.4811 -83.1294 39° Northeast 169 194 7,000  Level Indianapolis Center
09:04PM 40.5175 -83.0856 43° Northeast 169 194 7,000 -60 Level Indianapolis Center
09:05PM 40.5528 -83.0425 43° Northeast 170 196 6,900  Descending Indianapolis Center
09:06PM 40.5867 -82.9972 45° Northeast 172 198 7,000  Climbing Indianapolis Center
09:07PM 40.6272 -82.9444 45° Northeast 173 199 6,900  Descending Indianapolis Center
09:08PM 40.6611 -82.9003 45° Northeast 172 198 7,000  Climbing Indianapolis Center
09:09PM 40.6953 -82.8556 45° Northeast 171 197 7,000  Level Indianapolis Center
09:10PM 40.7297 -82.8111 44° Northeast 171 197 7,000 -60 Level Indianapolis Center
09:11PM 40.7617 -82.7628 49° Northeast 172 198 6,900 -240 Descending Indianapolis Center
09:12PM 40.7975 -82.7144 46° Northeast 180 207 6,600 -300 Descending Indianapolis Center